createdAt,value
2023-03-04T00:01:33.584Z,16.47
2023-03-04T00:04:01.517Z,17.33
2023-03-04T00:06:34.589Z,19.13
2023-03-04T00:09:04.335Z,16.80
2023-03-04T00:11:34.322Z,18.27
2023-03-04T00:14:14.196Z,16.37
2023-03-04T00:16:45.522Z,17.83
2023-03-04T00:19:17.653Z,18.83
2023-03-04T00:21:45.846Z,16.47
2023-03-04T00:24:35.561Z,18.67
2023-03-04T00:27:09.114Z,17.80
2023-03-04T00:29:38.582Z,17.80
2023-03-04T00:32:39.082Z,17.13
2023-03-04T00:35:08.095Z,17.80
2023-03-04T00:37:44.884Z,23.53
2023-03-04T00:40:12.014Z,18.60
2023-03-04T00:42:38.319Z,21.37
2023-03-04T00:45:05.509Z,18.30
2023-03-04T00:47:31.981Z,19.87
2023-03-04T00:49:58.538Z,18.53
2023-03-04T00:52:25.180Z,20.80
2023-03-04T00:54:51.649Z,20.13
2023-03-04T00:57:18.039Z,17.27
2023-03-04T00:59:45.613Z,19.13
2023-03-04T01:02:12.088Z,20.00
2023-03-04T01:04:38.721Z,21.03
2023-03-04T01:07:04.917Z,19.50
2023-03-04T01:09:31.498Z,18.20
2023-03-04T01:11:57.608Z,23.60
2023-03-04T01:14:24.109Z,19.10
2023-03-04T01:16:50.356Z,23.80
2023-03-04T01:19:17.966Z,18.77
2023-03-04T01:21:44.228Z,17.83
2023-03-04T01:24:10.694Z,17.70
2023-03-04T01:26:40.159Z,17.83
2023-03-04T01:29:06.909Z,19.43
2023-03-04T01:31:33.121Z,20.63
2023-03-04T01:33:59.784Z,20.07
2023-03-04T01:36:26.023Z,18.17
2023-03-04T01:38:52.449Z,17.27
2023-03-04T01:41:23.572Z,16.63
2023-03-04T01:43:50.379Z,19.17
2023-03-04T01:46:17.051Z,17.57
2023-03-04T01:48:44.170Z,17.47
2023-03-04T01:51:15.051Z,18.80
2023-03-04T01:53:43.699Z,16.07
2023-03-04T01:56:24.913Z,17.43
2023-03-04T01:59:11.647Z,15.87
2023-03-04T02:01:39.552Z,18.00
2023-03-04T02:04:07.354Z,18.23
2023-03-04T02:06:35.698Z,17.63
2023-03-04T02:09:03.074Z,16.33
2023-03-04T02:11:29.393Z,17.60
2023-03-04T02:13:56.147Z,18.70
2023-03-04T02:16:22.330Z,16.10
2023-03-04T02:18:48.976Z,17.77
2023-03-04T02:21:24.384Z,16.90
2023-03-04T02:24:19.096Z,19.77
2023-03-04T02:26:46.279Z,18.07
2023-03-04T02:29:15.003Z,16.03
2023-03-04T02:31:44.368Z,17.20
2023-03-04T02:34:18.482Z,16.40
2023-03-04T02:36:46.201Z,18.07
2023-03-04T02:39:20.768Z,16.10
2023-03-04T02:41:50.544Z,16.23
2023-03-04T02:44:20.256Z,16.97
2023-03-04T02:46:48.188Z,16.57
2023-03-04T02:49:15.128Z,17.10
2023-03-04T02:51:41.582Z,18.67
2023-03-04T02:54:19.266Z,15.83
2023-03-04T02:56:50.188Z,16.10
2023-03-04T02:59:18.049Z,16.30
2023-03-04T03:01:45.045Z,16.97
2023-03-04T03:04:12.368Z,18.23
2023-03-04T03:06:38.978Z,16.63
2023-03-04T03:09:06.180Z,18.17
2023-03-04T03:11:32.756Z,14.07
2023-03-04T03:13:59.285Z,14.50
2023-03-04T03:16:25.810Z,21.10
2023-03-04T03:18:52.336Z,15.63
2023-03-04T03:21:19.818Z,17.20
2023-03-04T03:23:46.483Z,17.20
2023-03-04T03:26:12.890Z,17.37
2023-03-04T03:28:39.315Z,22.03
2023-03-04T03:31:05.723Z,20.00
2023-03-04T03:33:32.258Z,17.70
2023-03-04T03:35:59.499Z,16.30
2023-03-04T03:38:26.682Z,21.00
2023-03-04T03:40:52.867Z,13.37
2023-03-04T03:43:21.069Z,16.03
2023-03-04T03:45:47.279Z,22.53
2023-03-04T03:48:13.735Z,16.80
2023-03-04T03:50:39.853Z,21.63
2023-03-04T03:53:06.400Z,16.43
2023-03-04T03:55:32.613Z,19.67
2023-03-04T03:57:59.016Z,18.57
2023-03-04T04:00:25.162Z,19.20
2023-03-04T04:02:54.934Z,17.20
2023-03-04T04:05:21.200Z,17.87
2023-03-04T04:07:47.566Z,19.40
2023-03-04T04:10:13.703Z,16.40
2023-03-04T04:12:40.188Z,18.13
2023-03-04T04:15:07.050Z,18.17
2023-03-04T04:17:33.494Z,17.53
2023-03-04T04:19:59.617Z,18.63
2023-03-04T04:22:26.056Z,19.97
2023-03-04T04:24:52.149Z,20.97
2023-03-04T04:27:18.484Z,18.50
2023-03-04T04:29:44.711Z,18.90
2023-03-04T04:32:12.505Z,16.23
2023-03-04T04:34:38.691Z,18.87
2023-03-04T04:37:05.092Z,19.17
2023-03-04T04:39:31.270Z,20.30
2023-03-04T04:41:57.649Z,19.80
2023-03-04T04:44:23.826Z,17.43
2023-03-04T04:46:50.189Z,21.97
2023-03-04T04:49:16.396Z,26.40
2023-03-04T04:51:42.815Z,20.40
2023-03-04T04:54:09.934Z,19.60
2023-03-04T04:56:36.468Z,16.27
2023-03-04T04:59:04.868Z,17.77
2023-03-04T05:01:31.855Z,17.37
2023-03-04T05:03:58.124Z,14.67
2023-03-04T05:06:25.247Z,17.40
2023-03-04T05:08:51.924Z,17.77
2023-03-04T05:11:19.400Z,14.87
2023-03-04T05:13:46.802Z,15.67
2023-03-04T05:16:14.343Z,16.80
2023-03-04T05:18:40.654Z,12.93
2023-03-04T05:21:07.506Z,11.43
2023-03-04T05:23:38.212Z,11.90
2023-03-04T05:26:05.935Z,13.70
2023-03-04T05:28:32.743Z,15.47
2023-03-04T05:30:59.617Z,14.80
2023-03-04T05:33:25.925Z,14.53
2023-03-04T05:35:54.257Z,13.23
2023-03-04T05:38:21.360Z,12.53
2023-03-04T05:40:48.426Z,17.87
2023-03-04T05:43:15.111Z,12.83
2023-03-04T05:45:41.879Z,16.67
2023-03-04T05:48:08.342Z,15.20
2023-03-04T05:50:35.464Z,14.23
2023-03-04T05:53:01.806Z,15.27
2023-03-04T05:55:29.353Z,13.10
2023-03-04T05:57:56.310Z,14.97
2023-03-04T06:00:23.004Z,17.97
2023-03-04T06:02:49.371Z,16.20
2023-03-04T06:05:16.851Z,11.47
2023-03-04T06:07:43.840Z,12.87
2023-03-04T06:10:13.734Z,15.50
2023-03-04T06:12:40.740Z,11.60
2023-03-04T06:15:09.541Z,11.20
2023-03-04T06:17:37.263Z,14.40
2023-03-04T06:20:06.157Z,12.83
2023-03-04T06:22:33.901Z,12.83
2023-03-04T06:25:00.755Z,10.87
2023-03-04T06:27:27.202Z,11.80
2023-03-04T06:29:54.289Z,13.50
2023-03-04T06:32:20.485Z,13.43
2023-03-04T06:34:46.958Z,10.70
2023-03-04T06:37:13.212Z,11.90
2023-03-04T06:39:39.618Z,10.40
2023-03-04T06:42:05.887Z,14.23
2023-03-04T06:44:32.463Z,11.33
2023-03-04T06:46:58.829Z,9.97
2023-03-04T06:49:25.674Z,17.20
2023-03-04T06:51:52.444Z,16.30
2023-03-04T06:54:19.470Z,12.33
2023-03-04T06:56:45.785Z,12.10
2023-03-04T06:59:12.638Z,11.80
2023-03-04T07:01:38.902Z,13.10
2023-03-04T07:04:05.795Z,14.50
2023-03-04T07:06:32.360Z,16.07
2023-03-04T07:08:59.310Z,16.27
2023-03-04T07:11:26.525Z,17.07
2023-03-04T07:13:53.345Z,16.03
2023-03-04T07:16:21.596Z,16.97
2023-03-04T07:18:48.485Z,13.50
2023-03-04T07:21:16.134Z,19.30
2023-03-04T07:23:42.957Z,17.60
2023-03-04T07:26:09.408Z,12.67
2023-03-04T07:28:36.630Z,12.70
2023-03-04T07:31:16.022Z,13.17
2023-03-04T07:33:42.674Z,15.30
2023-03-04T07:36:10.213Z,19.23
2023-03-04T07:38:36.865Z,14.03
2023-03-04T07:41:03.310Z,13.47
2023-03-04T07:43:29.841Z,14.00
2023-03-04T07:45:59.847Z,17.10
2023-03-04T07:48:26.949Z,13.00
2023-03-04T07:51:07.025Z,15.27
2023-03-04T07:53:34.722Z,16.50
2023-03-04T07:56:02.707Z,15.73
2023-03-04T07:58:29.492Z,14.90
2023-03-04T08:00:55.912Z,12.80
2023-03-04T08:03:22.457Z,14.83
2023-03-04T08:05:48.574Z,15.03
2023-03-04T08:08:17.294Z,15.53
2023-03-04T08:10:45.842Z,18.70
2023-03-04T08:13:13.284Z,14.17
2023-03-04T08:15:41.454Z,14.60
2023-03-04T08:18:08.493Z,14.27
2023-03-04T08:20:35.011Z,13.50
2023-03-04T08:23:01.909Z,13.43
2023-03-04T08:25:28.121Z,14.27
2023-03-04T08:27:54.590Z,15.30
2023-03-04T08:30:20.952Z,11.60
2023-03-04T08:32:47.824Z,13.50
2023-03-04T08:35:14.375Z,15.10
2023-03-04T08:37:40.824Z,12.80
2023-03-04T08:40:07.954Z,11.07
2023-03-04T08:42:34.529Z,10.97
2023-03-04T08:45:00.928Z,15.83
2023-03-04T08:47:27.475Z,12.47
2023-03-04T08:49:53.993Z,16.40
2023-03-04T08:52:20.871Z,11.80
2023-03-04T08:54:47.442Z,15.37
2023-03-04T08:57:14.124Z,19.07
2023-03-04T08:59:40.697Z,14.87
2023-03-04T09:02:07.335Z,15.77
2023-03-04T09:04:33.860Z,10.90
2023-03-04T09:07:00.453Z,13.93
2023-03-04T09:09:27.054Z,11.70
2023-03-04T09:11:53.854Z,10.00
2023-03-04T09:14:20.449Z,14.07
2023-03-04T09:16:47.190Z,10.40
2023-03-04T09:19:13.517Z,12.67
2023-03-04T09:21:40.260Z,11.13
2023-03-04T09:24:06.815Z,13.37
2023-03-04T09:26:33.579Z,9.83
2023-03-04T09:29:02.034Z,12.70
2023-03-04T09:31:28.975Z,12.27
2023-03-04T09:33:56.704Z,11.53
2023-03-04T09:36:24.364Z,11.47
2023-03-04T09:38:50.867Z,10.00
2023-03-04T09:41:52.506Z,7.47
2023-03-04T09:44:22.217Z,9.93
2023-03-04T09:46:50.263Z,8.90
2023-03-04T09:49:20.592Z,6.33
2023-03-04T09:51:53.611Z,6.77
2023-03-04T09:54:44.721Z,8.30
2023-03-04T09:57:28.011Z,8.57
2023-03-04T10:00:07.109Z,6.30
2023-03-04T10:03:05.054Z,8.47
2023-03-04T10:05:36.145Z,9.40
2023-03-04T10:08:18.829Z,8.30
2023-03-04T10:10:46.184Z,5.60
2023-03-04T10:13:19.050Z,6.73
2023-03-04T10:15:50.318Z,7.27
2023-03-04T10:18:49.265Z,8.17
2023-03-04T10:21:29.208Z,6.73
2023-03-04T10:23:58.152Z,5.50
2023-03-04T10:26:32.344Z,5.10
2023-03-04T10:29:02.241Z,7.20
2023-03-04T10:31:35.879Z,6.73
2023-03-04T10:34:06.410Z,6.60
2023-03-04T10:36:44.705Z,7.00
2023-03-04T10:39:17.206Z,5.73
2023-03-04T10:41:52.710Z,4.30
2023-03-04T10:44:19.275Z,6.33
2023-03-04T10:46:47.953Z,3.80
2023-03-04T10:49:17.267Z,5.90
2023-03-04T10:51:49.584Z,5.80
2023-03-04T10:54:26.614Z,3.80
2023-03-04T10:56:56.658Z,3.87
2023-03-04T10:59:40.207Z,3.83
2023-03-04T11:02:13.799Z,3.03
2023-03-04T11:04:40.483Z,2.23
2023-03-04T11:07:10.722Z,4.70
2023-03-04T11:09:39.432Z,4.30
2023-03-04T11:12:15.015Z,2.87
2023-03-04T11:14:48.388Z,3.40
2023-03-04T11:17:19.399Z,3.57
2023-03-04T11:20:15.529Z,3.67
2023-03-04T11:22:44.987Z,3.87
2023-03-04T11:25:26.930Z,2.57
2023-03-04T11:27:57.678Z,3.77
2023-03-04T11:30:30.847Z,5.77
2023-03-04T11:33:11.500Z,6.33
2023-03-04T11:35:45.121Z,4.13
2023-03-04T11:38:19.056Z,7.17
2023-03-04T11:40:52.480Z,3.90
2023-03-04T11:43:25.906Z,5.27
2023-03-04T11:46:21.155Z,5.00
2023-03-04T11:49:09.262Z,4.33
2023-03-04T11:51:54.230Z,3.67
2023-03-04T11:54:30.730Z,2.33
2023-03-04T11:57:11.850Z,4.43
2023-03-04T11:59:59.381Z,5.20
2023-03-04T12:02:47.001Z,4.33
2023-03-04T12:05:29.858Z,4.87
2023-03-04T12:08:08.354Z,4.17
2023-03-04T12:10:52.106Z,7.93
2023-03-04T12:13:21.507Z,4.00
2023-03-04T12:16:06.008Z,7.17
2023-03-04T12:18:57.326Z,4.87
2023-03-04T12:22:11.104Z,4.00
2023-03-04T12:24:56.351Z,7.57
2023-03-04T12:27:44.446Z,3.40
2023-03-04T12:30:35.271Z,5.00
2023-03-04T12:33:22.158Z,5.07
2023-03-04T12:36:05.745Z,9.50
2023-03-04T12:38:32.427Z,5.67
2023-03-04T12:41:29.290Z,6.10
2023-03-04T12:43:58.796Z,6.17
2023-03-04T12:47:16.857Z,7.10
2023-03-04T12:50:13.507Z,9.53
2023-03-04T12:52:55.038Z,5.77
2023-03-04T12:55:31.461Z,8.73
2023-03-04T12:57:58.671Z,5.23
2023-03-04T13:00:51.122Z,10.77
2023-03-04T13:03:42.349Z,8.73
2023-03-04T13:06:30.808Z,6.73
2023-03-04T13:09:17.973Z,7.97
2023-03-04T13:11:52.390Z,5.67
2023-03-04T13:14:25.467Z,7.17
2023-03-04T13:16:54.881Z,9.77
2023-03-04T13:19:44.402Z,8.53
2023-03-04T13:22:29.625Z,7.90
2023-03-04T13:24:58.237Z,8.67
2023-03-04T13:27:51.107Z,7.03
2023-03-04T13:30:37.384Z,9.07
2023-03-04T13:33:15.762Z,9.40
2023-03-04T13:35:48.468Z,5.20
2023-03-04T13:38:27.139Z,6.83
2023-03-04T13:41:20.422Z,8.80
2023-03-04T13:44:06.117Z,7.50
2023-03-04T13:46:41.965Z,6.83
2023-03-04T13:49:20.560Z,9.50
2023-03-04T13:51:47.364Z,9.23
2023-03-04T13:54:23.283Z,5.10
2023-03-04T13:57:19.597Z,9.43
2023-03-04T13:59:58.815Z,13.00
2023-03-04T14:02:26.540Z,7.17
2023-03-04T14:04:52.749Z,5.93
2023-03-04T14:07:26.614Z,7.53
2023-03-04T14:10:11.662Z,4.13
2023-03-04T14:12:43.752Z,7.23
2023-03-04T14:15:12.888Z,3.70
2023-03-04T14:17:45.227Z,3.50
2023-03-04T14:20:24.972Z,4.67
2023-03-04T14:22:51.892Z,3.37
2023-03-04T14:25:29.726Z,15.47
2023-03-04T14:28:12.310Z,5.77
2023-03-04T14:30:44.021Z,4.90
2023-03-04T14:33:18.148Z,6.10
2023-03-04T14:35:47.462Z,3.00
2023-03-04T14:38:37.432Z,2.70
2023-03-04T14:41:06.407Z,4.60
2023-03-04T14:43:44.119Z,3.73
2023-03-04T14:46:14.930Z,5.80
2023-03-04T14:48:48.596Z,3.23
2023-03-04T14:51:38.577Z,3.90
2023-03-04T14:54:05.865Z,4.67
2023-03-04T14:56:35.617Z,4.87
2023-03-04T14:59:02.868Z,7.37
2023-03-04T15:01:33.066Z,5.13
2023-03-04T15:04:03.319Z,3.83
2023-03-04T15:06:32.564Z,6.73
2023-03-04T15:09:07.034Z,5.03
2023-03-04T15:11:50.730Z,7.93
2023-03-04T15:14:44.940Z,5.07
2023-03-04T15:17:37.811Z,5.07
2023-03-04T15:20:07.316Z,5.70
2023-03-04T15:22:35.728Z,7.90
2023-03-04T15:25:03.101Z,4.70
2023-03-04T15:27:30.490Z,4.00
2023-03-04T15:30:00.008Z,3.93
2023-03-04T15:32:27.578Z,4.90
2023-03-04T15:34:54.608Z,9.23
2023-03-04T15:37:27.179Z,4.60
2023-03-04T15:39:56.792Z,3.37
2023-03-04T15:42:25.460Z,3.57
2023-03-04T15:44:52.050Z,3.63
2023-03-04T15:47:18.209Z,5.30
2023-03-04T15:49:46.816Z,4.17
2023-03-04T15:52:17.952Z,3.53
2023-03-04T15:54:45.583Z,5.00
2023-03-04T15:57:24.120Z,4.03
2023-03-04T15:59:51.203Z,6.20
2023-03-04T16:02:23.131Z,3.60
2023-03-04T16:04:50.417Z,4.87
2023-03-04T16:07:19.556Z,4.70
2023-03-04T16:09:52.264Z,5.73
2023-03-04T16:12:18.668Z,2.77
2023-03-04T16:14:46.296Z,3.93
2023-03-04T16:17:15.551Z,5.30
2023-03-04T16:19:42.353Z,5.80
2023-03-04T16:22:23.494Z,5.90
2023-03-04T16:24:51.506Z,6.17
2023-03-04T16:27:19.249Z,5.07
2023-03-04T16:29:46.161Z,6.07
2023-03-04T16:32:12.429Z,5.53
2023-03-04T16:34:38.774Z,5.73
2023-03-04T16:37:12.587Z,7.03
2023-03-04T16:39:43.450Z,8.03
2023-03-04T16:42:21.457Z,8.13
2023-03-04T16:44:48.763Z,7.50
2023-03-04T16:47:15.370Z,7.63
2023-03-04T16:49:42.289Z,9.57
2023-03-04T16:52:24.707Z,6.33
2023-03-04T16:54:51.482Z,7.30
2023-03-04T16:57:19.037Z,10.43
2023-03-04T16:59:45.519Z,7.80
2023-03-04T17:02:20.140Z,8.63
2023-03-04T17:04:48.704Z,9.63
2023-03-04T17:07:16.526Z,7.47
2023-03-04T17:09:43.079Z,11.83
2023-03-04T17:12:11.690Z,10.60
2023-03-04T17:14:41.494Z,8.17
2023-03-04T17:17:08.416Z,7.07
2023-03-04T17:19:35.113Z,9.80
2023-03-04T17:22:02.058Z,10.37
2023-03-04T17:24:29.045Z,7.10
2023-03-04T17:26:55.757Z,11.30
2023-03-04T17:29:22.729Z,7.23
2023-03-04T17:31:49.963Z,14.30
2023-03-04T17:34:17.706Z,9.50
2023-03-04T17:36:44.382Z,14.77
2023-03-04T17:39:13.755Z,12.93
2023-03-04T17:41:40.386Z,12.97
2023-03-04T17:44:06.978Z,16.53
2023-03-04T17:46:34.266Z,11.93
2023-03-04T17:49:01.272Z,12.93
2023-03-04T17:51:33.194Z,13.87
2023-03-04T17:54:00.788Z,9.40
2023-03-04T17:56:32.036Z,11.17
2023-03-04T17:59:01.917Z,12.70
2023-03-04T18:01:28.798Z,11.43
2023-03-04T18:03:55.432Z,9.00
2023-03-04T18:06:24.822Z,13.13
2023-03-04T18:08:52.463Z,15.63
2023-03-04T18:11:23.479Z,14.20
2023-03-04T18:13:50.508Z,11.67
2023-03-04T18:16:22.702Z,11.40
2023-03-04T18:18:50.487Z,13.20
2023-03-04T18:21:18.497Z,14.20
2023-03-04T18:23:45.656Z,13.13
2023-03-04T18:26:12.795Z,11.20
2023-03-04T18:28:39.793Z,13.57
2023-03-04T18:31:06.696Z,12.23
2023-03-04T18:33:33.905Z,8.53
2023-03-04T18:36:04.932Z,10.33
2023-03-04T18:38:31.835Z,7.77
2023-03-04T18:41:04.533Z,10.20
2023-03-04T18:43:31.025Z,9.00
2023-03-04T18:46:06.319Z,8.97
2023-03-04T18:48:45.997Z,9.17
2023-03-04T18:51:12.693Z,8.13
2023-03-04T18:53:39.304Z,4.97
2023-03-04T18:56:17.679Z,7.73
2023-03-04T18:58:46.928Z,4.47
2023-03-04T19:01:16.262Z,4.10
2023-03-04T19:03:44.510Z,5.00
2023-03-04T19:06:11.349Z,5.37
2023-03-04T19:08:37.929Z,5.83
2023-03-04T19:11:07.780Z,4.80
2023-03-04T19:13:34.251Z,3.90
2023-03-04T19:16:01.350Z,4.07
2023-03-04T19:18:28.705Z,6.90
2023-03-04T19:20:57.974Z,4.87
2023-03-04T19:23:24.727Z,4.70
2023-03-04T19:25:51.399Z,6.23
2023-03-04T19:28:18.322Z,6.53
2023-03-04T19:30:48.137Z,4.30
2023-03-04T19:33:14.741Z,4.30
2023-03-04T19:35:42.820Z,5.27
2023-03-04T19:38:09.202Z,5.90
2023-03-04T19:40:39.876Z,5.43
2023-03-04T19:43:07.490Z,4.60
2023-03-04T19:45:34.331Z,4.90
2023-03-04T19:48:02.360Z,5.83
2023-03-04T19:50:30.700Z,5.80
2023-03-04T19:52:56.980Z,5.53
2023-03-04T19:55:24.191Z,7.93
2023-03-04T19:57:50.574Z,6.83
2023-03-04T20:00:18.157Z,9.70
2023-03-04T20:02:47.514Z,11.30
2023-03-04T20:05:14.543Z,11.03
2023-03-04T20:07:41.025Z,10.17
2023-03-04T20:10:08.555Z,13.07
2023-03-04T20:12:35.697Z,10.50
2023-03-04T20:15:05.605Z,12.20
2023-03-04T20:17:32.062Z,13.23
2023-03-04T20:19:58.724Z,11.27
2023-03-04T20:22:25.075Z,15.57
2023-03-04T20:24:54.178Z,11.23
2023-03-04T20:27:20.621Z,16.73
2023-03-04T20:29:48.250Z,18.33
2023-03-04T20:32:14.458Z,25.67
2023-03-04T20:34:41.016Z,22.47
2023-03-04T20:37:07.264Z,22.07
2023-03-04T20:39:34.146Z,29.67
2023-03-04T20:42:00.718Z,25.60
2023-03-04T20:44:27.523Z,27.37
2023-03-04T20:46:53.787Z,22.80
2023-03-04T20:49:24.151Z,31.23
2023-03-04T20:51:57.285Z,34.47
2023-03-04T20:54:23.817Z,29.80
2023-03-04T20:56:50.209Z,32.20
2023-03-04T20:59:17.422Z,34.80
2023-03-04T21:01:45.429Z,35.53
2023-03-04T21:04:12.188Z,39.17
2023-03-04T21:06:39.785Z,34.27
2023-03-04T21:09:10.613Z,33.17
2023-03-04T21:11:39.864Z,27.87
2023-03-04T21:14:23.633Z,28.50
2023-03-04T21:16:54.567Z,30.17
2023-03-04T21:19:27.171Z,29.60
2023-03-04T21:21:54.599Z,29.97
2023-03-04T21:24:24.137Z,30.37
2023-03-04T21:26:50.955Z,35.43
2023-03-04T21:29:19.937Z,34.47
2023-03-04T21:31:49.533Z,34.10
2023-03-04T21:34:26.000Z,34.00
2023-03-04T21:36:52.150Z,28.03
2023-03-04T21:39:21.330Z,24.73
2023-03-04T21:41:48.114Z,34.43
2023-03-04T21:44:28.136Z,55.00
2023-03-04T21:47:13.833Z,88.70
2023-03-04T21:49:40.423Z,75.57
2023-03-04T21:52:06.658Z,52.47
2023-03-04T21:54:33.167Z,51.57
2023-03-04T21:56:59.406Z,51.83
2023-03-04T21:59:26.257Z,39.43
2023-03-04T22:01:54.397Z,38.73
2023-03-04T22:04:20.964Z,42.50
2023-03-04T22:06:48.721Z,41.33
2023-03-04T22:09:15.485Z,41.63
2023-03-04T22:11:41.647Z,39.77
2023-03-04T22:14:10.448Z,31.90
2023-03-04T22:16:42.452Z,31.07
2023-03-04T22:19:15.490Z,22.60
2023-03-04T22:21:41.868Z,32.87
2023-03-04T22:24:08.844Z,26.27
2023-03-04T22:26:37.152Z,30.67
2023-03-04T22:29:05.389Z,26.07
2023-03-04T22:31:35.033Z,30.30
2023-03-04T22:34:07.549Z,25.57
2023-03-04T22:36:36.465Z,20.80
2023-03-04T22:39:07.434Z,20.83
2023-03-04T22:41:34.617Z,20.57
2023-03-04T22:44:02.015Z,17.87
2023-03-04T22:46:31.267Z,21.30
2023-03-04T22:49:01.187Z,22.53
2023-03-04T22:51:28.216Z,22.13
2023-03-04T22:53:55.599Z,23.73
2023-03-04T22:56:21.794Z,23.77
2023-03-04T22:58:48.920Z,27.07
2023-03-04T23:01:16.236Z,28.73
2023-03-04T23:03:44.586Z,26.93
2023-03-04T23:06:12.712Z,33.43
2023-03-04T23:08:42.309Z,36.50
2023-03-04T23:11:13.575Z,24.17
2023-03-04T23:13:40.445Z,30.53
2023-03-04T23:16:08.957Z,54.30
2023-03-04T23:18:37.142Z,41.53
2023-03-04T23:21:07.208Z,15.47
2023-03-04T23:23:34.342Z,33.20
2023-03-04T23:26:00.999Z,32.83
2023-03-04T23:28:27.661Z,27.07
2023-03-04T23:30:53.834Z,23.60
2023-03-04T23:33:20.681Z,20.27
2023-03-04T23:35:46.858Z,16.00
2023-03-04T23:38:13.269Z,11.73
2023-03-04T23:40:39.699Z,16.93
2023-03-04T23:43:06.081Z,15.90
2023-03-04T23:45:32.718Z,16.33
2023-03-04T23:47:59.153Z,16.63
2023-03-04T23:50:25.436Z,18.67
2023-03-04T23:52:51.864Z,17.20
2023-03-04T23:55:19.763Z,12.97
2023-03-04T23:57:46.667Z,14.03
